createdAt,value
2018-11-21T00:00:42.702Z,94870.34
2018-11-21T00:03:09.397Z,94864.66
2018-11-21T00:05:36.034Z,94861.55
2018-11-21T00:08:02.672Z,94863.67
2018-11-21T00:10:30.307Z,94863.67
2018-11-21T00:12:56.954Z,94856.67
2018-11-21T00:15:23.596Z,94855.05
2018-11-21T00:17:50.243Z,94858.53
2018-11-21T00:20:16.871Z,94846.31
2018-11-21T00:22:43.523Z,94842.17
2018-11-21T00:25:10.159Z,94830.50
2018-11-21T00:27:36.797Z,94822.41
2018-11-21T00:30:03.490Z,94820.16
2018-11-21T00:32:30.125Z,94823.86
2018-11-21T00:34:56.831Z,94829.94
2018-11-21T00:37:23.475Z,94820.44
2018-11-21T00:39:50.120Z,94817.94
2018-11-21T00:42:16.774Z,94824.01
2018-11-21T00:44:43.416Z,94804.93
2018-11-21T00:47:10.132Z,94802.33
2018-11-21T00:49:36.868Z,94792.16
2018-11-21T00:52:03.501Z,94801.38
2018-11-21T00:54:30.225Z,94784.41
2018-11-21T00:56:56.869Z,94775.81
2018-11-21T00:59:23.564Z,94783.83
2018-11-21T01:01:50.202Z,94784.41
2018-11-21T01:04:16.840Z,94778.59
2018-11-21T01:06:43.496Z,94785.59
2018-11-21T01:09:10.194Z,94783.37
2018-11-21T01:11:36.859Z,94776.67
2018-11-21T01:14:03.507Z,94779.84
2018-11-21T01:16:30.147Z,94777.14
2018-11-21T01:18:56.797Z,94771.18
2018-11-21T01:21:25.237Z,94767.16
2018-11-21T01:23:50.127Z,94758.35
2018-11-21T01:26:16.776Z,94766.69
2018-11-21T01:28:43.469Z,94768.48
2018-11-21T01:31:10.110Z,94775.06
2018-11-21T01:33:36.797Z,94769.30
2018-11-21T01:36:03.438Z,94758.93
2018-11-21T01:38:30.072Z,94770.60
2018-11-21T01:40:56.726Z,94774.53
2018-11-21T01:43:23.377Z,94767.59
2018-11-21T01:45:50.014Z,94757.48
2018-11-21T01:48:16.706Z,94754.18
2018-11-21T01:50:43.346Z,94760.50
2018-11-21T01:53:09.992Z,94770.31
2018-11-21T01:55:36.688Z,94771.44
2018-11-21T01:58:03.325Z,94760.17
2018-11-21T02:00:29.976Z,94748.45
2018-11-21T02:02:56.617Z,94752.85
2018-11-21T02:05:23.374Z,94764.98
2018-11-21T02:07:50.115Z,94765.13
2018-11-21T02:10:16.773Z,94776.80
2018-11-21T02:12:43.409Z,94779.20
2018-11-21T02:15:10.100Z,94775.17
2018-11-21T02:17:36.732Z,94770.05
2018-11-21T02:20:03.370Z,94758.35
2018-11-21T02:22:30.074Z,94756.70
2018-11-21T02:24:56.751Z,94748.73
2018-11-21T02:27:23.354Z,94755.19
2018-11-21T02:29:49.998Z,94756.06
2018-11-21T02:32:16.692Z,94750.85
2018-11-21T02:34:43.350Z,94755.77
2018-11-21T02:37:10.039Z,94751.34
2018-11-21T02:39:36.681Z,94750.97
2018-11-21T02:42:03.375Z,94747.81
2018-11-21T02:44:30.009Z,94734.83
2018-11-21T02:46:56.678Z,94729.48
2018-11-21T02:49:23.384Z,94733.84
2018-11-21T02:51:50.029Z,94729.59
2018-11-21T02:54:16.664Z,94725.05
2018-11-21T02:56:44.361Z,94710.88
2018-11-21T02:59:09.947Z,94712.36
2018-11-21T03:01:36.661Z,94708.94
2018-11-21T03:04:04.334Z,94691.88
2018-11-21T03:06:30.980Z,94679.61
2018-11-21T03:08:57.664Z,94683.28
2018-11-21T03:11:24.305Z,94680.67
2018-11-21T03:13:53.527Z,94668.73
2018-11-21T03:16:20.231Z,94667.34
2018-11-21T03:18:46.869Z,94668.80
2018-11-21T03:21:13.555Z,94656.48
2018-11-21T03:23:40.196Z,94664.94
2018-11-21T03:26:06.982Z,94663.77
2018-11-21T03:28:33.629Z,94671.66
2018-11-21T03:31:00.261Z,94657.61
2018-11-21T03:33:26.942Z,94657.50
2018-11-21T03:35:53.611Z,94671.52
2018-11-21T03:38:20.274Z,94653.59
2018-11-21T03:40:46.917Z,94652.69
2018-11-21T03:43:13.563Z,94653.59
2018-11-21T03:45:40.276Z,94649.65
2018-11-21T03:48:06.928Z,94658.63
2018-11-21T03:50:33.578Z,94655.47
2018-11-21T03:53:00.269Z,94649.27
2018-11-21T03:55:26.912Z,94640.56
2018-11-21T03:57:53.615Z,94637.63
2018-11-21T04:00:20.265Z,94632.36
2018-11-21T04:02:46.950Z,94631.58
2018-11-21T04:05:13.593Z,94623.38
2018-11-21T04:07:40.287Z,94626.22
2018-11-21T04:10:06.933Z,94626.59
2018-11-21T04:12:33.573Z,94630.93
2018-11-21T04:15:00.285Z,94625.95
2018-11-21T04:17:26.926Z,94635.72
2018-11-21T04:19:53.648Z,94627.25
2018-11-21T04:22:20.263Z,94627.25
2018-11-21T04:24:46.898Z,94627.95
2018-11-21T04:27:13.570Z,94625.52
2018-11-21T04:29:40.265Z,94613.11
2018-11-21T04:32:06.900Z,94605.78
2018-11-21T04:34:33.585Z,94599.03
2018-11-21T04:37:00.268Z,94604.72
2018-11-21T04:39:26.915Z,94602.95
2018-11-21T04:41:53.550Z,94605.75
2018-11-21T04:44:20.195Z,94604.80
2018-11-21T04:46:46.978Z,94601.66
2018-11-21T04:49:13.618Z,94598.74
2018-11-21T04:51:40.264Z,94592.95
2018-11-21T04:54:06.905Z,94588.47
2018-11-21T04:56:33.573Z,94596.80
2018-11-21T04:59:00.223Z,94586.95
2018-11-21T05:01:26.913Z,94594.59
2018-11-21T05:03:53.548Z,94600.95
2018-11-21T05:06:20.189Z,94603.78
2018-11-21T05:08:46.836Z,94602.51
2018-11-21T05:11:13.561Z,94615.45
2018-11-21T05:13:40.198Z,94608.99
2018-11-21T05:16:06.886Z,94608.88
2018-11-21T05:18:33.524Z,94602.42
2018-11-21T05:21:00.216Z,94609.20
2018-11-21T05:23:26.914Z,94605.34
2018-11-21T05:25:53.556Z,94604.17
2018-11-21T05:28:20.249Z,94598.85
2018-11-21T05:30:46.884Z,94603.05
2018-11-21T05:33:13.585Z,94601.39
2018-11-21T05:35:40.234Z,94596.14
2018-11-21T05:38:06.863Z,94594.61
2018-11-21T05:40:33.520Z,94585.25
2018-11-21T05:43:00.207Z,94587.22
2018-11-21T05:45:26.856Z,94581.17
2018-11-21T05:47:53.610Z,94580.52
2018-11-21T05:50:20.250Z,94584.13
2018-11-21T05:52:46.964Z,94579.20
2018-11-21T05:55:13.656Z,94584.58
2018-11-21T05:57:40.306Z,94585.28
2018-11-21T06:00:06.946Z,94593.11
2018-11-21T06:02:33.600Z,94595.28
2018-11-21T06:05:00.297Z,94596.52
2018-11-21T06:07:26.946Z,94597.09
2018-11-21T06:09:53.584Z,94591.53
2018-11-21T06:12:20.226Z,94591.38
2018-11-21T06:14:46.917Z,94592.85
2018-11-21T06:17:13.710Z,94595.38
2018-11-21T06:19:40.346Z,94595.20
2018-11-21T06:22:07.036Z,94589.97
2018-11-21T06:24:33.688Z,94603.46
2018-11-21T06:27:00.343Z,94603.46
2018-11-21T06:29:26.980Z,94604.35
2018-11-21T06:31:53.660Z,94602.97
2018-11-21T06:34:20.300Z,94600.54
2018-11-21T06:36:47.008Z,94597.57
2018-11-21T06:39:13.646Z,94600.65
2018-11-21T06:41:40.307Z,94601.95
2018-11-21T06:44:06.976Z,94606.30
2018-11-21T06:46:33.678Z,94605.55
2018-11-21T06:49:00.315Z,94608.58
2018-11-21T06:51:27.068Z,94611.30
2018-11-21T06:53:53.767Z,94614.91
2018-11-21T06:56:20.418Z,94616.62
2018-11-21T06:58:47.201Z,94613.55
2018-11-21T07:01:13.968Z,94612.23
2018-11-21T07:03:40.611Z,94605.05
2018-11-21T07:06:07.327Z,94607.13
2018-11-21T07:08:34.018Z,94603.92
2018-11-21T07:11:00.666Z,94602.94
2018-11-21T07:13:27.375Z,94598.45
2018-11-21T07:15:54.022Z,94598.61
2018-11-21T07:18:20.712Z,94602.19
2018-11-21T07:20:47.426Z,94603.09
2018-11-21T07:23:14.067Z,94601.41
2018-11-21T07:25:40.768Z,94601.36
2018-11-21T07:28:12.951Z,94605.61
2018-11-21T07:30:34.165Z,94603.66
2018-11-21T07:33:00.805Z,94615.62
2018-11-21T07:35:27.503Z,94612.87
2018-11-21T07:37:54.160Z,94614.61
2018-11-21T07:40:20.843Z,94616.38
2018-11-21T07:42:48.569Z,94610.82
2018-11-21T07:45:15.296Z,94606.53
2018-11-21T07:47:41.942Z,94617.73
2018-11-21T07:50:08.601Z,94620.47
2018-11-21T07:52:35.250Z,94609.61
2018-11-21T07:55:01.893Z,94610.91
2018-11-21T07:57:28.595Z,94617.16
2018-11-21T07:59:55.229Z,94624.69
2018-11-21T08:02:22.082Z,94628.86
2018-11-21T08:04:48.786Z,94633.87
2018-11-21T08:07:15.591Z,94632.83
2018-11-21T08:09:42.329Z,94638.81
2018-11-21T08:12:08.972Z,94625.45
2018-11-21T08:14:35.630Z,94640.19
2018-11-21T08:19:49.170Z,94644.46
2018-11-21T08:22:15.825Z,94642.13
2018-11-21T08:24:44.644Z,94645.05
2018-11-21T08:27:11.338Z,94644.51
2018-11-21T08:29:37.988Z,94638.48
2018-11-21T08:32:04.654Z,94637.30
2018-11-21T08:34:31.311Z,94635.59
2018-11-21T08:36:57.959Z,94635.51
2018-11-21T08:39:24.655Z,94636.00
2018-11-21T08:41:52.365Z,94630.52
2018-11-21T08:44:20.280Z,94631.19
2018-11-21T08:46:45.665Z,94632.88
2018-11-21T08:49:12.327Z,94633.26
2018-11-21T08:51:39.016Z,94633.06
2018-11-21T08:54:05.665Z,94639.88
2018-11-21T08:56:32.582Z,94636.41
2018-11-21T08:58:59.014Z,94638.37
2018-11-21T09:01:28.522Z,94633.22
2018-11-21T09:03:55.230Z,94629.45
2018-11-21T09:06:22.016Z,94630.84
2018-11-21T09:08:49.101Z,94625.95
2018-11-21T09:11:15.782Z,94628.63
2018-11-21T09:13:42.536Z,94630.13
2018-11-21T09:16:09.269Z,94620.38
2018-11-21T09:18:35.960Z,94632.55
2018-11-21T09:21:02.735Z,94633.47
2018-11-21T09:23:29.425Z,94625.20
2018-11-21T09:25:56.118Z,94629.04
2018-11-21T09:28:22.799Z,94620.18
2018-11-21T09:30:49.599Z,94623.35
2018-11-21T09:33:17.471Z,94625.20
2018-11-21T09:35:45.342Z,94626.50
2018-11-21T09:38:12.006Z,94632.17
2018-11-21T09:40:38.820Z,94629.94
2018-11-21T09:43:05.516Z,94632.55
2018-11-21T09:45:32.226Z,94631.41
2018-11-21T09:47:58.873Z,94609.21
2018-11-21T09:50:25.523Z,94626.47
2018-11-21T09:52:52.182Z,94630.53
2018-11-21T09:55:18.851Z,94615.30
2018-11-21T09:57:45.537Z,94615.64
2018-11-21T10:00:12.326Z,94602.06
2018-11-21T10:02:40.089Z,94610.57
2018-11-21T10:05:06.727Z,94612.69
2018-11-21T10:07:33.364Z,94617.30
2018-11-21T10:10:00.006Z,94618.22
2018-11-21T10:12:26.645Z,94603.66
2018-11-21T10:14:53.283Z,94610.66
2018-11-21T10:17:19.937Z,94612.87
2018-11-21T10:19:46.593Z,94604.83
2018-11-21T10:22:13.235Z,94616.59
2018-11-21T10:24:39.885Z,94614.41
2018-11-21T10:27:07.011Z,94616.00
2018-11-21T10:29:33.654Z,94618.48
2018-11-21T10:32:00.782Z,94617.64
2018-11-21T10:34:27.630Z,94615.06
2018-11-21T10:36:54.352Z,94611.56
2018-11-21T10:39:21.000Z,94602.94
2018-11-21T10:41:47.646Z,94611.26
2018-11-21T10:44:14.363Z,94604.64
2018-11-21T10:46:41.103Z,94607.84
2018-11-21T10:49:07.846Z,94609.60
2018-11-21T10:51:34.474Z,94616.67
2018-11-21T10:54:01.149Z,94610.73
2018-11-21T10:56:27.946Z,94610.35
2018-11-21T10:58:54.595Z,94618.06
2018-11-21T11:01:24.406Z,94614.42
2018-11-21T11:03:51.075Z,94611.41
2018-11-21T11:06:17.874Z,94612.31
2018-11-21T11:08:44.557Z,94610.02
2018-11-21T11:11:11.204Z,94607.99
2018-11-21T11:13:37.877Z,94604.11
2018-11-21T11:16:04.850Z,94608.89
2018-11-21T11:18:31.580Z,94593.17
2018-11-21T11:20:58.650Z,94603.14
2018-11-21T11:23:25.372Z,94606.45
2018-11-21T11:25:52.024Z,94601.52
2018-11-21T11:28:18.678Z,94599.22
2018-11-21T11:30:45.316Z,94602.34
2018-11-21T11:33:11.958Z,94597.87
2018-11-21T11:35:38.667Z,94600.23
2018-11-21T11:38:05.375Z,94583.75
2018-11-21T11:40:32.071Z,94599.03
2018-11-21T11:42:58.728Z,94598.20
2018-11-21T11:45:25.433Z,94596.31
2018-11-21T11:47:52.166Z,94591.77
2018-11-21T11:50:18.839Z,94593.61
2018-11-21T11:52:45.490Z,94586.48
2018-11-21T11:55:12.136Z,94598.67
2018-11-21T11:57:38.902Z,94592.05
2018-11-21T12:00:05.567Z,94593.12
2018-11-21T12:02:33.423Z,94594.19
2018-11-21T12:05:07.929Z,94597.55
2018-11-21T12:07:34.618Z,94604.41
2018-11-21T12:10:01.993Z,94607.45
2018-11-21T12:12:28.632Z,94610.95
2018-11-21T12:14:55.420Z,94608.95
2018-11-21T12:17:22.075Z,94612.30
2018-11-21T12:19:48.901Z,94615.72
2018-11-21T12:22:16.770Z,94614.22
2018-11-21T12:24:44.456Z,94617.38
2018-11-21T12:27:11.371Z,94616.28
2018-11-21T12:29:38.372Z,94604.33
2018-11-21T12:32:05.150Z,94611.66
2018-11-21T12:34:31.880Z,94605.25
2018-11-21T12:36:58.544Z,94612.82
2018-11-21T12:39:25.225Z,94608.98
2018-11-21T12:41:51.868Z,94612.14
2018-11-21T12:44:19.029Z,94606.88
2018-11-21T12:46:45.697Z,94613.33
2018-11-21T12:49:12.426Z,94615.70
2018-11-21T12:51:39.079Z,94624.09
2018-11-21T12:54:05.837Z,94619.40
2018-11-21T12:56:32.476Z,94618.37
2018-11-21T12:58:59.127Z,94619.77
2018-11-21T13:01:25.785Z,94621.69
2018-11-21T13:03:52.446Z,94628.71
2018-11-21T13:06:19.086Z,94627.67
2018-11-21T13:08:45.780Z,94632.98
2018-11-21T13:11:12.448Z,94627.95
2018-11-21T13:13:39.093Z,94628.41
2018-11-21T13:16:05.737Z,94629.84
2018-11-21T13:18:32.398Z,94634.45
2018-11-21T13:20:59.139Z,94614.52
2018-11-21T13:23:25.802Z,94633.17
2018-11-21T13:25:52.493Z,94639.09
2018-11-21T13:28:19.254Z,94636.88
2018-11-21T13:30:45.926Z,94640.97
2018-11-21T13:33:12.632Z,94639.52
2018-11-21T13:35:39.269Z,94638.13
2018-11-21T13:38:05.927Z,94641.26
2018-11-21T13:40:32.625Z,94643.11
2018-11-21T13:42:59.280Z,94648.28
2018-11-21T13:45:25.956Z,94647.45
2018-11-21T13:47:52.594Z,94646.89
2018-11-21T13:50:19.286Z,94644.83
2018-11-21T13:52:47.308Z,94645.98
2018-11-21T13:55:13.783Z,94647.63
2018-11-21T13:57:40.436Z,94652.73
2018-11-21T14:00:07.126Z,94640.66
2018-11-21T14:02:37.791Z,94654.81
2018-11-21T14:05:04.436Z,94652.55
2018-11-21T14:07:31.142Z,94659.12
2018-11-21T14:09:57.780Z,94661.75
2018-11-21T14:12:24.451Z,94665.25
2018-11-21T14:14:52.209Z,94662.69
2018-11-21T14:17:18.846Z,94654.77
2018-11-21T14:19:45.502Z,94666.57
2018-11-21T14:22:12.163Z,94671.13
2018-11-21T14:24:38.882Z,94658.15
2018-11-21T14:27:05.544Z,94658.62
2018-11-21T14:29:33.479Z,94666.61
2018-11-21T14:31:58.934Z,94666.91
2018-11-21T14:34:25.569Z,94658.45
2018-11-21T14:36:52.219Z,94663.16
2018-11-21T14:39:18.858Z,94671.80
2018-11-21T14:41:45.505Z,94675.05
2018-11-21T14:44:13.294Z,94667.45
2018-11-21T14:46:39.942Z,94669.03
2018-11-21T14:49:06.614Z,94666.20
2018-11-21T14:51:35.374Z,94671.22
2018-11-21T14:54:02.204Z,94671.09
2018-11-21T14:56:29.341Z,94673.85
2018-11-21T14:58:55.598Z,94683.00
2018-11-21T15:01:22.253Z,94685.97
2018-11-21T15:03:48.925Z,94687.50
2018-11-21T15:06:15.579Z,94686.45
2018-11-21T15:08:42.272Z,94684.77
2018-11-21T15:11:08.973Z,94694.97
2018-11-21T15:13:35.644Z,94694.28
2018-11-21T15:16:02.298Z,94703.39
2018-11-21T15:18:28.958Z,94710.44
2018-11-21T15:20:55.623Z,94712.02
2018-11-21T15:23:22.263Z,94712.55
2018-11-21T15:25:48.956Z,94718.45
2018-11-21T15:28:15.606Z,94724.70
2018-11-21T15:30:42.252Z,94732.91
2018-11-21T15:33:08.916Z,94734.67
2018-11-21T15:35:35.627Z,94734.73
2018-11-21T15:38:02.346Z,94735.72
2018-11-21T15:40:29.003Z,94739.52
2018-11-21T15:42:55.650Z,94749.03
2018-11-21T15:45:22.298Z,94746.03
2018-11-21T15:47:48.951Z,94753.55
2018-11-21T15:50:15.676Z,94754.53
2018-11-21T15:52:42.375Z,94760.52
2018-11-21T15:55:09.010Z,94755.66
2018-11-21T15:57:35.648Z,94768.28
2018-11-21T16:00:02.302Z,94776.06
2018-11-21T16:02:28.949Z,94776.16
2018-11-21T16:04:55.575Z,94774.02
2018-11-21T16:07:22.224Z,94781.13
2018-11-21T16:09:48.878Z,94781.36
2018-11-21T16:12:15.573Z,94791.27
2018-11-21T16:14:42.220Z,94794.06
2018-11-21T16:17:08.866Z,94798.80
2018-11-21T16:19:43.761Z,94796.80
2018-11-21T16:22:10.464Z,94804.66
2018-11-21T16:24:37.103Z,94789.56
2018-11-21T16:27:03.915Z,94800.55
2018-11-21T16:29:33.082Z,94803.75
2018-11-21T16:31:57.187Z,94805.66
2018-11-21T16:34:23.845Z,94809.06
2018-11-21T16:36:50.481Z,94808.82
2018-11-21T16:39:17.120Z,94812.20
2018-11-21T16:41:43.778Z,94813.78
2018-11-21T16:44:10.421Z,94805.98
2018-11-21T16:46:37.148Z,94812.41
2018-11-21T16:49:03.808Z,94817.56
2018-11-21T16:51:30.508Z,94818.02
2018-11-21T16:53:57.218Z,94831.86
2018-11-21T16:56:23.943Z,94831.86
2018-11-21T16:58:50.552Z,94837.75
2018-11-21T17:01:17.196Z,94846.77
2018-11-21T17:03:43.932Z,94850.11
2018-11-21T17:06:13.233Z,94850.14
2018-11-21T17:08:39.877Z,94859.73
2018-11-21T17:11:06.531Z,94843.57
2018-11-21T17:13:33.235Z,94861.56
2018-11-21T17:15:59.923Z,94863.86
2018-11-21T17:18:26.526Z,94868.03
2018-11-21T17:20:53.220Z,94868.30
2018-11-21T17:23:19.851Z,94869.80
2018-11-21T17:25:46.547Z,94869.16
2018-11-21T17:28:13.182Z,94865.95
2018-11-21T17:30:39.824Z,94875.25
2018-11-21T17:33:06.461Z,94879.61
2018-11-21T17:35:33.219Z,94880.50
2018-11-21T17:38:02.119Z,94885.44
2018-11-21T17:40:26.536Z,94890.62
2018-11-21T17:42:53.165Z,94895.67
2018-11-21T17:45:19.952Z,94896.94
2018-11-21T17:47:46.591Z,94902.89
2018-11-21T17:50:13.239Z,94904.34
2018-11-21T17:52:39.877Z,94901.81
2018-11-21T17:55:06.578Z,94910.31
2018-11-21T17:57:33.222Z,94906.77
2018-11-21T17:59:59.914Z,94912.39
2018-11-21T18:02:26.607Z,94915.99
2018-11-21T18:04:53.345Z,94903.09
2018-11-21T18:07:19.873Z,94926.80
2018-11-21T18:09:46.571Z,94933.50
2018-11-21T18:12:13.209Z,94938.43
2018-11-21T18:14:39.856Z,94935.53
2018-11-21T18:17:06.566Z,94937.06
2018-11-21T18:19:33.268Z,94934.58
2018-11-21T18:21:59.914Z,94942.48
2018-11-21T18:24:26.609Z,94940.61
2018-11-21T18:26:53.272Z,94943.65
2018-11-21T18:29:19.918Z,94950.78
2018-11-21T18:31:46.569Z,94951.67
2018-11-21T18:34:13.226Z,94957.24
2018-11-21T18:36:39.871Z,94953.56
2018-11-21T18:39:06.522Z,94954.63
2018-11-21T18:41:33.236Z,94944.13
2018-11-21T18:43:59.878Z,94961.73
2018-11-21T18:46:26.591Z,94957.18
2018-11-21T18:48:53.241Z,94970.45
2018-11-21T18:51:19.880Z,94968.86
2018-11-21T18:53:46.525Z,94973.17
2018-11-21T18:56:13.261Z,94984.69
2018-11-21T18:58:39.902Z,94984.54
2018-11-21T19:01:06.559Z,94985.38
2018-11-21T19:03:33.256Z,94980.05
2018-11-21T19:05:59.902Z,94980.94
2018-11-21T19:08:26.634Z,94984.86
2018-11-21T19:10:53.276Z,94990.37
2018-11-21T19:13:19.922Z,94990.19
2018-11-21T19:15:46.573Z,94992.64
2018-11-21T19:18:13.212Z,95001.95
2018-11-21T19:20:39.851Z,95001.95
2018-11-21T19:23:06.505Z,95003.34
2018-11-21T19:25:33.210Z,95008.01
2018-11-21T19:27:59.784Z,95006.67
2018-11-21T19:30:26.520Z,95005.86
2018-11-21T19:32:53.179Z,95004.91
2018-11-21T19:35:19.822Z,95008.89
2018-11-21T19:37:46.467Z,95008.32
2018-11-21T19:40:13.111Z,95009.88
2018-11-21T19:42:39.803Z,95011.91
2018-11-21T19:45:08.332Z,95012.05
2018-11-21T19:47:33.107Z,95017.62
2018-11-21T19:49:59.809Z,95014.72
2018-11-21T19:52:26.453Z,95016.11
2018-11-21T19:54:53.087Z,95020.19
2018-11-21T19:57:19.784Z,95022.59
2018-11-21T19:59:46.424Z,95020.52
2018-11-21T20:02:13.121Z,95027.23
2018-11-21T20:04:39.761Z,95029.36
2018-11-21T20:07:06.458Z,95028.98
2018-11-21T20:09:33.104Z,95034.31
2018-11-21T20:11:59.808Z,95038.53
2018-11-21T20:14:26.452Z,95036.45
2018-11-21T20:16:53.098Z,95040.13
2018-11-21T20:19:19.746Z,95041.69
2018-11-21T20:21:46.379Z,95045.31
2018-11-21T20:24:13.064Z,95044.59
2018-11-21T20:26:39.754Z,95037.73
2018-11-21T20:29:06.438Z,95041.43
2018-11-21T20:31:33.082Z,95037.02
2018-11-21T20:33:59.726Z,95043.92
2018-11-21T20:36:26.382Z,95040.94
2018-11-21T20:38:53.074Z,95045.16
2018-11-21T20:41:19.710Z,95049.97
2018-11-21T20:43:46.354Z,95053.71
2018-11-21T20:46:13.004Z,95052.32
2018-11-21T20:48:39.687Z,95054.14
2018-11-21T20:51:06.387Z,95057.25
2018-11-21T20:53:33.031Z,95062.06
2018-11-21T20:55:59.670Z,95059.66
2018-11-21T20:58:26.309Z,95057.04
2018-11-21T21:00:52.945Z,95058.31
2018-11-21T21:03:19.600Z,95061.09
2018-11-21T21:05:46.257Z,95068.16
2018-11-21T21:08:12.908Z,95064.46
2018-11-21T21:10:39.601Z,95073.75
2018-11-21T21:13:06.243Z,95070.71
2018-11-21T21:15:32.883Z,95072.34
2018-11-21T21:17:59.542Z,95078.16
2018-11-21T21:20:26.179Z,95082.71
2018-11-21T21:22:52.838Z,95076.72
2018-11-21T21:25:19.481Z,95076.02
2018-11-21T21:27:46.122Z,95083.09
2018-11-21T21:30:12.763Z,95084.22
2018-11-21T21:32:39.405Z,95090.13
2018-11-21T21:35:06.063Z,95092.45
2018-11-21T21:37:32.750Z,95099.41
2018-11-21T21:39:59.405Z,95103.95
2018-11-21T21:42:26.060Z,95103.88
2018-11-21T21:44:52.766Z,95104.09
2018-11-21T21:47:19.466Z,95112.23
2018-11-21T21:49:46.112Z,95110.79
2018-11-21T21:52:12.780Z,95109.56
2018-11-21T21:54:39.387Z,95115.48
2018-11-21T21:57:06.080Z,95113.36
2018-11-21T21:59:32.717Z,95123.09
2018-11-21T22:01:59.353Z,95120.95
2018-11-21T22:04:26.001Z,95125.89
2018-11-21T22:06:52.640Z,95129.34
2018-11-21T22:09:20.647Z,95121.72
2018-11-21T22:11:45.945Z,95123.09
2018-11-21T22:14:12.585Z,95123.48
2018-11-21T22:16:39.220Z,95132.33
2018-11-21T22:19:05.920Z,95130.82
2018-11-21T22:21:32.547Z,95129.90
2018-11-21T22:23:59.195Z,95136.30
2018-11-21T22:26:25.842Z,95138.79
2018-11-21T22:28:52.476Z,95131.83
2018-11-21T22:31:19.171Z,95141.95
2018-11-21T22:33:45.812Z,95140.80
2018-11-21T22:36:12.503Z,95135.75
2018-11-21T22:38:39.150Z,95138.32
2018-11-21T22:41:05.789Z,95139.33
2018-11-21T22:43:32.447Z,95143.13
2018-11-21T22:45:59.093Z,95138.33
2018-11-21T22:48:25.779Z,95135.55
2018-11-21T22:50:52.412Z,95138.33
2018-11-21T22:53:19.102Z,95140.77
2018-11-21T22:55:45.770Z,95139.38
2018-11-21T22:58:12.415Z,95142.75
2018-11-21T23:00:39.057Z,95135.55
2018-11-21T23:03:05.703Z,95142.67
2018-11-21T23:05:37.639Z,95137.36
2018-11-21T23:07:59.049Z,95131.92
2018-11-21T23:10:25.694Z,95131.13
2018-11-21T23:12:52.369Z,95133.57
2018-11-21T23:15:19.004Z,95135.30
2018-11-21T23:17:45.658Z,95134.54
2018-11-21T23:20:12.440Z,95137.36
2018-11-21T23:22:39.080Z,95139.09
2018-11-21T23:25:05.764Z,95140.64
2018-11-21T23:27:32.401Z,95136.98
2018-11-21T23:29:59.099Z,95135.85
2018-11-21T23:32:25.793Z,95141.80
2018-11-21T23:34:52.441Z,95141.28
2018-11-21T23:37:19.083Z,95141.91
2018-11-21T23:39:45.740Z,95149.11
2018-11-21T23:42:12.371Z,95143.94
2018-11-21T23:44:39.025Z,95137.11
2018-11-21T23:47:05.714Z,95141.91
2018-11-21T23:49:32.351Z,95136.95
2018-11-21T23:51:58.988Z,95130.41
2018-11-21T23:54:25.682Z,95140.64
2018-11-21T23:57:15.748Z,95137.11
2018-11-21T23:59:19.005Z,95136.09
